Flight Track Log - Related Links

Times and Time Zones

All times are in EDT time to prevent confusion due to time zone crossing. See the UAL3853 flight status page for this flight to view local times or setup timezone preferences in your user account.


Time Position Orientation Groundspeed Altitude Reporting Facility
EDT Latitude Longitude Course Direction KTS MPH feet Rate Location/Type
Thu 07:35:43 AM 42.9500 -71.4167 270° West 167 192 900  Level KA90
Thu 07:36:25 AM 42.9833 -71.4000 20° North 185 213 2,500 2,059 Climbing KA90
Thu 07:37:25 AM 43.0167 -71.4333 324° Northwest 214 246 4,400 1,853 Climbing KA90
Thu 07:38:41 AM 43.0328 -71.5594 280° West 262 302 6,700 1,956 Climbing Boston Center
Thu 07:39:40 AM 43.0622 -71.6303 300° West 283 326 8,800 1,650 Climbing Boston Center
Thu 07:40:41 AM 43.1067 -71.7347 300° West 283 326 10,000 992 Climbing Boston Center
Thu 07:41:00 AM 42.9415 -72.2141 270° West  Level Estimated
Thu 07:41:41 AM 43.1158 -71.8486 276° West 305 351 10,800  Level Boston Center
Thu 07:42:39 AM 43.1206 -71.9964 273° West 352 405 12,200 1,412 Climbing Boston Center
Thu 07:43:40 AM 43.1231 -72.1358 271° West 368 423 13,600 1,190 Climbing Boston Center
Thu 07:44:40 AM 43.1256 -72.2494 272° West 368 423 14,600 1,160 Climbing Boston Center
Thu 07:45:39 AM 43.1319 -72.4031 273° West 368 423 15,900 1,300 Climbing Boston Center
Thu 07:46:40 AM 43.1361 -72.5453 272° West 368 423 17,200 1,140 Climbing Boston Center
Thu 07:47:40 AM 43.1378 -72.6878 271° West 368 423 18,200 984 Climbing Boston Center
Thu 07:48:42 AM 43.1417 -72.8300 272° West 368 423 19,200 1,059 Climbing Boston Center
Thu 07:49:39 AM 43.1453 -72.9778 272° West 381 438 20,300 1,119 Climbing Boston Center
Thu 07:50:40 AM 43.1486 -73.1231 272° West 386 444 21,400 1,041 Climbing Boston Center
Thu 07:51:40 AM 43.1497 -73.2739 271° West 386 444 22,400 1,140 Climbing Boston Center
Thu 07:52:41 AM 43.1483 -73.4333 269° West 386 444 23,700 1,140 Climbing Boston Center
Thu 07:53:41 AM 43.1511 -73.5869 271° West 386 444 24,700 942 Climbing Boston Center
Thu 07:54:42 AM 43.1542 -73.7067 272° West 386 444 25,600 1,008 Climbing Boston Center
Thu 07:55:40 AM 43.1561 -73.8744 271° West 400 460 26,700 1,119 Climbing Boston Center
Thu 07:56:40 AM 43.1583 -74.0225 271° West 400 460 27,800 1,050 Climbing Boston Center
Thu 07:57:40 AM 43.1583 -74.1678 270° West 395 455 28,800 1,041 Climbing Boston Center
Thu 07:58:41 AM 43.1603 -74.3158 271° West 395 455 29,900 1,033 Climbing Boston Center
Thu 07:59:42 AM 43.1619 -74.4611 271° West 390 449 30,900 1,059 Climbing Boston Center
Thu 08:00:40 AM 43.1633 -74.6119 271° West 390 449 32,000 1,109 Climbing Boston Center
Thu 08:01:41 AM 43.1625 -74.7572 270° West 390 449 33,100 1,041 Climbing Boston Center
Thu 08:02:41 AM 43.1656 -74.9081 272° West 390 449 34,100 1,041 Climbing Boston Center
Thu 08:03:42 AM 43.1625 -75.0533 268° West 385 443 35,200 958 Climbing Boston Center
Thu 08:04:40 AM 43.1611 -75.1983 269° West 385 443 36,000 403 Climbing Boston Center
Thu 08:05:41 AM 43.1611 -75.3664 270° West 385 443 36,000  Level Boston Center
Thu 08:06:42 AM 43.1633 -75.5231 271° West 399 459 36,000  Level Boston Center
Thu 08:07:40 AM 43.1650 -75.6883 271° West 420 483 36,000  Level Boston Center
Thu 08:08:40 AM 43.1642 -75.8561 270° West 434 499 36,000  Level Boston Center
Thu 08:09:40 AM 43.1633 -76.0214 270° West 439 505 36,000  Level Boston Center
Thu 08:11:36 AM 43.1592 -76.3164 269° West 442 509 36,000  Level Cleveland Center
Thu 08:12:38 AM 43.1586 -76.5189 270° West 444 511 36,000  Level Cleveland Center
Thu 08:13:40 AM 43.1575 -76.6883 270° West 446 513 36,000  Level Cleveland Center
Thu 08:14:42 AM 43.1583 -76.8403 270° West 446 513 36,000  Level Cleveland Center
Thu 08:15:44 AM 43.1558 -77.0422 269° West 446 513 36,000  Level Cleveland Center
Thu 08:16:46 AM 43.1561 -77.2111 270° West 446 513 36,000  Level Cleveland Center
Thu 08:17:48 AM 43.1536 -77.3803 269° West 448 516 36,000  Level Cleveland Center
Thu 08:18:50 AM 43.1531 -77.5483 270° West 446 513 36,000  Level Cleveland Center
Thu 08:19:52 AM 43.1506 -77.7156 269° West 444 511 36,000  Level Cleveland Center
Thu 08:20:54 AM 43.1478 -77.9175 269° West 447 514 36,000  Level Cleveland Center
Thu 08:21:56 AM 43.1458 -78.0842 269° West 444 511 36,000  Level Cleveland Center
Thu 08:22:58 AM 43.1428 -78.2519 269° West 444 511 36,000  Level Cleveland Center
Thu 08:24:00 AM 43.1394 -78.4211 269° West 447 514 36,000  Level Cleveland Center
Thu 08:25:02 AM 43.1347 -78.5908 268° West 454 522 36,000  Level Cleveland Center
Thu 08:26:04 AM 43.1281 -78.7933 267° West 447 514 36,000  Level Cleveland Center
Thu 08:26:54 AM 43.1167 -78.9000 262° West 450 518 36,000  Level Toronto Center
Thu 08:27:54 AM 43.1167 -79.0833 270° West 440 506 36,000  Level Toronto Center
Thu 08:28:54 AM 43.1000 -79.2500 262° West 450 518 36,000  Level Toronto Center
Thu 08:29:54 AM 43.1000 -79.4333 270° West 440 506 36,000  Level Toronto Center
Thu 08:30:54 AM 43.1000 -79.5833 270° West 440 506 36,000  Level Toronto Center
Thu 08:31:54 AM 43.0833 -79.7500 262° West 430 495 36,000  Level Toronto Center
Thu 08:32:54 AM 43.0833 -79.9000 270° West 430 495 36,000  Level Toronto Center
Thu 08:33:54 AM 43.0833 -80.0667 270° West 430 495 36,000  Level Toronto Center
Thu 08:34:54 AM 43.0667 -80.2333 262° West 430 495 36,000  Level Toronto Center
Thu 08:35:54 AM 43.0667 -80.4167 270° West 430 495 36,000  Level Toronto Center
Thu 08:36:54 AM 43.0500 -80.5667 261° West 430 495 36,000  Level Toronto Center
Thu 08:37:54 AM 43.0500 -80.7333 270° West 430 495 36,000  Level Toronto Center
Thu 08:38:54 AM 43.0333 -80.8833 261° West 440 506 36,000  Level Toronto Center
Thu 08:39:54 AM 43.0167 -81.0500 262° West 450 518 36,000  Level Toronto Center
Thu 08:40:54 AM 43.0167 -81.2333 270° West 440 506 36,000  Level Toronto Center
Thu 08:41:54 AM 43.0167 -81.3833 270° West 440 506 36,000  Level Toronto Center
Thu 08:42:54 AM 43.0167 -81.5667 270° West 440 506 36,000  Level Toronto Center
Thu 08:43:54 AM 43.0167 -81.7333 270° West 440 506 36,000  Level Toronto Center
Thu 08:44:54 AM 43.0167 -81.8833 270° West 440 506 36,000  Level Toronto Center
Thu 08:45:54 AM 43.0000 -82.0667 263° West 430 495 36,000  Level Toronto Center
Thu 08:46:54 AM 43.0000 -82.2333 270° West 430 495 36,000  Level Toronto Center
Thu 08:47:54 AM 43.0000 -82.3833 270° West 430 495 36,000  Level Toronto Center
Thu 08:48:54 AM 43.0000 -82.5500 270° West 430 495 36,000  Level Toronto Center
Thu 08:49:26 AM 43.0042 -82.6339 274° West 433 498 36,000  Level Cleveland Center
Thu 08:50:28 AM 42.9992 -82.7958 268° West 430 495 36,000 -48 Level Cleveland Center
Thu 08:51:30 AM 42.9911 -82.9903 267° West 429 494 35,900 -532 Descending Cleveland Center
Thu 08:52:32 AM 42.9867 -83.1539 268° West 433 498 34,900 -960 Descending Cleveland Center
Thu 08:53:35 AM 42.9822 -83.3181 268° West 437 503 33,900 -1,008 Descending Cleveland Center
Thu 08:54:37 AM 42.9767 -83.4831 267° West 439 505 32,800 -919 Descending Cleveland Center
Thu 08:55:39 AM 42.9703 -83.6453 267° West 432 497 32,000 -387 Descending Cleveland Center
Thu 08:56:41 AM 42.9567 -83.8400 265° West 434 499 32,000  Level Cleveland Center
Thu 08:57:43 AM 42.9406 -84.0031 262° West 438 504 32,000  Level Cleveland Center
Thu 08:58:45 AM 42.9250 -84.1694 263° West 442 509 32,000  Level Cleveland Center
Thu 08:59:47 AM 42.9086 -84.3478 263° West 443 510 32,000  Level Cleveland Center
Thu 09:00:49 AM 42.8911 -84.5142 262° West 444 511 32,000  Level Cleveland Center
Thu 09:01:51 AM 42.8744 -84.6806 262° West 445 512 32,000  Level Cleveland Center
Thu 09:02:53 AM 42.8572 -84.8447 262° West 440 506 32,000  Level Cleveland Center
Thu 09:03:55 AM 42.8403 -85.0072 262° West 435 501 32,000  Level Cleveland Center
Thu 09:04:57 AM 42.8197 -85.2033 262° West 435 501 32,000  Level Cleveland Center
Thu 09:05:59 AM 42.8011 -85.3639 261° West 431 496 32,000 -48 Level Cleveland Center
Thu 09:07:01 AM 42.7817 -85.5261 261° West 434 499 31,900 -1,597 Descending Cleveland Center
Thu 09:08:03 AM 42.7522 -85.6883 256° West 438 504 28,700 -3,024 Descending Cleveland Center
Thu 09:09:06 AM 42.7225 -85.8544 256° West 447 514 25,600 -2,928 Descending Cleveland Center
Thu 09:10:08 AM 42.6917 -86.0206 256° West 450 518 22,600 -2,661 Descending Cleveland Center
Thu 09:11:10 AM 42.6628 -86.1783 256° West 433 498 20,100 -1,258 Descending Cleveland Center
Thu 09:12:12 AM 42.6342 -86.3347 256° West 426 490 20,000 -263 Descending Cleveland Center
Thu 09:13:27 AM 42.5922 -86.5544 256° West 428 493 19,500 -1,401 Descending Chicago Center
Thu 09:14:29 AM 42.5639 -86.7144 257° West 422 486 16,800 -2,710 Descending Chicago Center
Thu 09:15:31 AM 42.5275 -86.8475 250° West 399 459 13,900 -2,613 Descending Chicago Center
Thu 09:16:33 AM 42.4911 -86.9833 250° West 385 443 11,400 -1,887 Descending Chicago Center
Thu 09:17:35 AM 42.4533 -87.1128 248° West 375 432 10,000 -871 Descending Chicago Center
Thu 09:18:37 AM 42.4167 -87.2506 250° West 323 372 9,600 -677 Descending Chicago Center
Thu 09:19:39 AM 42.3875 -87.3508 249° West 292 336 8,600 -968 Descending Chicago Center
Thu 09:20:41 AM 42.3589 -87.4483 248° West 282 325 7,600 -774 Descending Chicago Center
Thu 09:21:43 AM 42.3253 -87.5369 243° Southwest 287 330 7,000 -290 Descending Chicago Center
Thu 09:22:45 AM 42.2633 -87.5992 217° Southwest 275 316 7,000 -484 Level Chicago Center
Thu 09:23:47 AM 42.2039 -87.6700 221° Southwest 243 280 6,000 -1,113 Descending Chicago Center
Thu 09:24:49 AM 42.1539 -87.7233 218° Southwest 232 267 4,700 -1,307 Descending Chicago Center
Thu 09:25:28 AM 42.1167 -87.7667 221° Southwest 228 262 3,800 -1,152 Descending Chicago TRACON
Thu 09:26:28 AM 42.0667 -87.8167 217° Southwest 212 244 2,800 -1,000 Descending Chicago TRACON
Thu 09:27:28 AM 42.0333 -87.8500 217° Southwest 164 189 1,800 -950 Descending Chicago TRACON
Thu 09:28:28 AM 42.0000 -87.8833 217° Southwest 139 160 900 -900 Descending Chicago TRACON

Login

Don't have an account? Register now (free) for customized features, flight alerts, and more!